sensor_id;sensor_type;location;lat;lon;timestamp;P1;durP1;ratioP1;P2;durP2;ratioP2
3379;SDS011;1703;51.964;7.642;2022-12-16T00:00:21;46.07;;;23.57;;
3379;SDS011;1703;51.964;7.642;2022-12-16T00:02:49;43.77;;;23.10;;
3379;SDS011;1703;51.964;7.642;2022-12-16T00:05:16;37.10;;;20.63;;
3379;SDS011;1703;51.964;7.642;2022-12-16T00:07:44;43.40;;;25.80;;
3379;SDS011;1703;51.964;7.642;2022-12-16T00:10:12;48.40;;;22.90;;
3379;SDS011;1703;51.964;7.642;2022-12-16T00:12:39;34.30;;;20.40;;
3379;SDS011;1703;51.964;7.642;2022-12-16T00:15:06;44.20;;;25.33;;
3379;SDS011;1703;51.964;7.642;2022-12-16T00:17:34;41.93;;;23.23;;
3379;SDS011;1703;51.964;7.642;2022-12-16T00:20:01;59.40;;;25.57;;
3379;SDS011;1703;51.964;7.642;2022-12-16T00:22:28;40.17;;;22.93;;
3379;SDS011;1703;51.964;7.642;2022-12-16T00:24:54;44.70;;;24.13;;
3379;SDS011;1703;51.964;7.642;2022-12-16T00:27:22;44.87;;;23.70;;
3379;SDS011;1703;51.964;7.642;2022-12-16T00:29:50;38.30;;;22.40;;
3379;SDS011;1703;51.964;7.642;2022-12-16T00:32:17;42.40;;;23.17;;
3379;SDS011;1703;51.964;7.642;2022-12-16T00:34:43;37.90;;;21.53;;
3379;SDS011;1703;51.964;7.642;2022-12-16T00:37:11;47.53;;;26.67;;
3379;SDS011;1703;51.964;7.642;2022-12-16T00:39:38;44.00;;;21.80;;
3379;SDS011;1703;51.964;7.642;2022-12-16T00:42:04;47.53;;;22.67;;
3379;SDS011;1703;51.964;7.642;2022-12-16T00:44:33;38.93;;;22.27;;
3379;SDS011;1703;51.964;7.642;2022-12-16T00:46:59;41.90;;;24.70;;
3379;SDS011;1703;51.964;7.642;2022-12-16T00:49:26;35.03;;;20.80;;
3379;SDS011;1703;51.964;7.642;2022-12-16T00:51:53;40.47;;;19.53;;
3379;SDS011;1703;51.964;7.642;2022-12-16T00:54:20;28.97;;;19.67;;
3379;SDS011;1703;51.964;7.642;2022-12-16T00:56:46;42.37;;;21.90;;
3379;SDS011;1703;51.964;7.642;2022-12-16T00:59:13;43.73;;;20.97;;
3379;SDS011;1703;51.964;7.642;2022-12-16T01:01:41;36.53;;;19.40;;
3379;SDS011;1703;51.964;7.642;2022-12-16T01:04:08;38.77;;;19.87;;
3379;SDS011;1703;51.964;7.642;2022-12-16T01:06:35;44.57;;;21.23;;
3379;SDS011;1703;51.964;7.642;2022-12-16T01:09:02;38.00;;;19.13;;
3379;SDS011;1703;51.964;7.642;2022-12-16T01:11:29;46.07;;;21.37;;
3379;SDS011;1703;51.964;7.642;2022-12-16T01:13:55;35.70;;;19.87;;
3379;SDS011;1703;51.964;7.642;2022-12-16T01:16:23;40.73;;;20.40;;
3379;SDS011;1703;51.964;7.642;2022-12-16T01:18:51;45.83;;;21.50;;
3379;SDS011;1703;51.964;7.642;2022-12-16T01:21:20;32.10;;;17.37;;
3379;SDS011;1703;51.964;7.642;2022-12-16T01:23:47;37.30;;;21.70;;
3379;SDS011;1703;51.964;7.642;2022-12-16T01:26:14;41.70;;;21.90;;
3379;SDS011;1703;51.964;7.642;2022-12-16T01:28:42;44.03;;;20.50;;
3379;SDS011;1703;51.964;7.642;2022-12-16T01:31:09;28.80;;;19.63;;
3379;SDS011;1703;51.964;7.642;2022-12-16T01:33:37;39.47;;;21.23;;
3379;SDS011;1703;51.964;7.642;2022-12-16T01:36:06;36.17;;;20.10;;
3379;SDS011;1703;51.964;7.642;2022-12-16T01:38:34;43.37;;;20.60;;
3379;SDS011;1703;51.964;7.642;2022-12-16T01:41:02;34.97;;;18.90;;
3379;SDS011;1703;51.964;7.642;2022-12-16T01:43:31;29.70;;;19.47;;
3379;SDS011;1703;51.964;7.642;2022-12-16T01:45:59;38.20;;;21.40;;
3379;SDS011;1703;51.964;7.642;2022-12-16T01:48:32;44.10;;;22.97;;
3379;SDS011;1703;51.964;7.642;2022-12-16T01:51:05;41.20;;;21.60;;
3379;SDS011;1703;51.964;7.642;2022-12-16T01:53:36;39.87;;;20.77;;
3379;SDS011;1703;51.964;7.642;2022-12-16T01:56:05;31.67;;;18.97;;
3379;SDS011;1703;51.964;7.642;2022-12-16T01:58:32;35.07;;;18.90;;
3379;SDS011;1703;51.964;7.642;2022-12-16T02:01:01;39.33;;;20.50;;
3379;SDS011;1703;51.964;7.642;2022-12-16T02:03:28;41.30;;;21.37;;
3379;SDS011;1703;51.964;7.642;2022-12-16T02:05:59;44.10;;;21.03;;
3379;SDS011;1703;51.964;7.642;2022-12-16T02:08:29;39.10;;;18.60;;
3379;SDS011;1703;51.964;7.642;2022-12-16T02:11:00;34.30;;;20.60;;
3379;SDS011;1703;51.964;7.642;2022-12-16T02:13:48;37.70;;;19.47;;
3379;SDS011;1703;51.964;7.642;2022-12-16T02:16:25;48.40;;;20.70;;
3379;SDS011;1703;51.964;7.642;2022-12-16T02:18:59;38.27;;;19.10;;
3379;SDS011;1703;51.964;7.642;2022-12-16T02:21:40;42.73;;;21.47;;
3379;SDS011;1703;51.964;7.642;2022-12-16T02:24:25;34.00;;;20.00;;
3379;SDS011;1703;51.964;7.642;2022-12-16T02:30:19;41.17;;;19.47;;
3379;SDS011;1703;51.964;7.642;2022-12-16T02:32:51;39.73;;;20.40;;
3379;SDS011;1703;51.964;7.642;2022-12-16T02:35:30;52.60;;;21.90;;
3379;SDS011;1703;51.964;7.642;2022-12-16T02:38:05;40.70;;;20.87;;
3379;SDS011;1703;51.964;7.642;2022-12-16T02:40:40;33.40;;;20.17;;
3379;SDS011;1703;51.964;7.642;2022-12-16T02:43:12;36.23;;;21.37;;
3379;SDS011;1703;51.964;7.642;2022-12-16T02:45:45;41.40;;;21.50;;
3379;SDS011;1703;51.964;7.642;2022-12-16T02:48:13;43.40;;;22.50;;
3379;SDS011;1703;51.964;7.642;2022-12-16T02:50:41;39.40;;;21.70;;
3379;SDS011;1703;51.964;7.642;2022-12-16T02:53:12;39.63;;;21.07;;
3379;SDS011;1703;51.964;7.642;2022-12-16T02:55:43;38.57;;;22.17;;
3379;SDS011;1703;51.964;7.642;2022-12-16T02:58:18;43.80;;;22.63;;
3379;SDS011;1703;51.964;7.642;2022-12-16T03:00:55;34.07;;;21.10;;
3379;SDS011;1703;51.964;7.642;2022-12-16T03:03:31;34.77;;;22.10;;
3379;SDS011;1703;51.964;7.642;2022-12-16T03:06:03;42.20;;;20.67;;
3379;SDS011;1703;51.964;7.642;2022-12-16T03:08:32;40.60;;;23.10;;
3379;SDS011;1703;51.964;7.642;2022-12-16T03:11:02;41.33;;;23.57;;
3379;SDS011;1703;51.964;7.642;2022-12-16T03:13:33;41.97;;;20.93;;
3379;SDS011;1703;51.964;7.642;2022-12-16T03:16:05;38.27;;;21.40;;
3379;SDS011;1703;51.964;7.642;2022-12-16T03:18:35;43.57;;;20.50;;
3379;SDS011;1703;51.964;7.642;2022-12-16T03:21:06;42.70;;;21.97;;
3379;SDS011;1703;51.964;7.642;2022-12-16T03:23:35;34.50;;;20.60;;
3379;SDS011;1703;51.964;7.642;2022-12-16T03:26:07;35.20;;;19.30;;
3379;SDS011;1703;51.964;7.642;2022-12-16T03:28:42;40.27;;;23.73;;
3379;SDS011;1703;51.964;7.642;2022-12-16T03:31:18;45.07;;;21.03;;
3379;SDS011;1703;51.964;7.642;2022-12-16T03:33:54;41.80;;;20.33;;
3379;SDS011;1703;51.964;7.642;2022-12-16T03:36:25;46.17;;;23.73;;
3379;SDS011;1703;51.964;7.642;2022-12-16T03:38:54;46.17;;;21.57;;
3379;SDS011;1703;51.964;7.642;2022-12-16T03:41:22;39.33;;;20.07;;
3379;SDS011;1703;51.964;7.642;2022-12-16T03:43:50;43.23;;;21.07;;
3379;SDS011;1703;51.964;7.642;2022-12-16T03:46:19;34.90;;;20.77;;
3379;SDS011;1703;51.964;7.642;2022-12-16T03:48:48;42.50;;;22.20;;
3379;SDS011;1703;51.964;7.642;2022-12-16T03:51:16;38.40;;;21.23;;
3379;SDS011;1703;51.964;7.642;2022-12-16T03:53:44;37.20;;;21.00;;
3379;SDS011;1703;51.964;7.642;2022-12-16T03:56:11;38.20;;;22.83;;
3379;SDS011;1703;51.964;7.642;2022-12-16T03:58:38;35.43;;;20.33;;
3379;SDS011;1703;51.964;7.642;2022-12-16T04:01:05;38.00;;;20.70;;
3379;SDS011;1703;51.964;7.642;2022-12-16T04:03:34;45.17;;;23.67;;
3379;SDS011;1703;51.964;7.642;2022-12-16T04:06:02;38.00;;;21.27;;
3379;SDS011;1703;51.964;7.642;2022-12-16T04:08:29;48.33;;;20.03;;
3379;SDS011;1703;51.964;7.642;2022-12-16T04:10:56;35.40;;;19.03;;
3379;SDS011;1703;51.964;7.642;2022-12-16T04:13:40;46.80;;;22.40;;
3379;SDS011;1703;51.964;7.642;2022-12-16T04:16:25;37.13;;;18.90;;
3379;SDS011;1703;51.964;7.642;2022-12-16T04:19:14;37.70;;;20.80;;
3379;SDS011;1703;51.964;7.642;2022-12-16T04:22:02;34.30;;;18.90;;
3379;SDS011;1703;51.964;7.642;2022-12-16T04:24:47;38.30;;;21.80;;
3379;SDS011;1703;51.964;7.642;2022-12-16T04:27:13;47.97;;;22.90;;
3379;SDS011;1703;51.964;7.642;2022-12-16T04:29:53;33.57;;;20.70;;
3379;SDS011;1703;51.964;7.642;2022-12-16T04:32:38;39.07;;;21.90;;
3379;SDS011;1703;51.964;7.642;2022-12-16T04:35:23;37.23;;;19.83;;
3379;SDS011;1703;51.964;7.642;2022-12-16T04:38:08;37.97;;;22.30;;
3379;SDS011;1703;51.964;7.642;2022-12-16T04:40:53;38.07;;;19.47;;
3379;SDS011;1703;51.964;7.642;2022-12-16T04:43:37;38.00;;;19.83;;
3379;SDS011;1703;51.964;7.642;2022-12-16T04:46:21;37.87;;;20.53;;
3379;SDS011;1703;51.964;7.642;2022-12-16T04:49:06;32.97;;;19.87;;
3379;SDS011;1703;51.964;7.642;2022-12-16T04:51:52;40.47;;;23.47;;
3379;SDS011;1703;51.964;7.642;2022-12-16T04:54:36;35.93;;;19.00;;
3379;SDS011;1703;51.964;7.642;2022-12-16T04:57:20;41.00;;;22.07;;
3379;SDS011;1703;51.964;7.642;2022-12-16T05:00:05;33.67;;;20.23;;
3379;SDS011;1703;51.964;7.642;2022-12-16T05:02:50;33.37;;;19.90;;
3379;SDS011;1703;51.964;7.642;2022-12-16T05:05:35;38.63;;;21.30;;
3379;SDS011;1703;51.964;7.642;2022-12-16T05:08:21;43.57;;;22.57;;
3379;SDS011;1703;51.964;7.642;2022-12-16T05:11:05;37.83;;;19.60;;
3379;SDS011;1703;51.964;7.642;2022-12-16T05:13:49;43.03;;;23.23;;
3379;SDS011;1703;51.964;7.642;2022-12-16T05:16:34;49.17;;;22.73;;
3379;SDS011;1703;51.964;7.642;2022-12-16T05:19:18;38.17;;;20.97;;
3379;SDS011;1703;51.964;7.642;2022-12-16T05:22:03;46.93;;;24.07;;
3379;SDS011;1703;51.964;7.642;2022-12-16T05:24:48;38.87;;;20.10;;
3379;SDS011;1703;51.964;7.642;2022-12-16T05:27:35;42.67;;;20.90;;
3379;SDS011;1703;51.964;7.642;2022-12-16T05:30:19;44.13;;;21.10;;
3379;SDS011;1703;51.964;7.642;2022-12-16T05:33:03;40.50;;;21.10;;
3379;SDS011;1703;51.964;7.642;2022-12-16T05:35:48;42.33;;;19.30;;
3379;SDS011;1703;51.964;7.642;2022-12-16T05:38:44;42.57;;;19.67;;
3379;SDS011;1703;51.964;7.642;2022-12-16T05:41:29;35.40;;;19.77;;
3379;SDS011;1703;51.964;7.642;2022-12-16T05:44:14;56.50;;;21.50;;
3379;SDS011;1703;51.964;7.642;2022-12-16T05:46:58;42.23;;;19.80;;
3379;SDS011;1703;51.964;7.642;2022-12-16T05:49:39;38.60;;;22.07;;
3379;SDS011;1703;51.964;7.642;2022-12-16T05:52:23;39.33;;;21.90;;
3379;SDS011;1703;51.964;7.642;2022-12-16T05:55:07;45.03;;;20.10;;
3379;SDS011;1703;51.964;7.642;2022-12-16T05:57:53;37.70;;;20.60;;
3379;SDS011;1703;51.964;7.642;2022-12-16T06:00:37;38.37;;;21.33;;
3379;SDS011;1703;51.964;7.642;2022-12-16T06:03:22;41.40;;;20.17;;
3379;SDS011;1703;51.964;7.642;2022-12-16T06:06:06;35.80;;;20.23;;
3379;SDS011;1703;51.964;7.642;2022-12-16T06:08:50;47.27;;;21.00;;
3379;SDS011;1703;51.964;7.642;2022-12-16T06:11:35;41.17;;;20.53;;
3379;SDS011;1703;51.964;7.642;2022-12-16T06:14:21;38.60;;;18.63;;
3379;SDS011;1703;51.964;7.642;2022-12-16T06:17:05;43.57;;;22.90;;
3379;SDS011;1703;51.964;7.642;2022-12-16T06:19:49;40.20;;;21.40;;
3379;SDS011;1703;51.964;7.642;2022-12-16T06:22:34;39.80;;;19.87;;
3379;SDS011;1703;51.964;7.642;2022-12-16T06:25:18;32.10;;;19.03;;
3379;SDS011;1703;51.964;7.642;2022-12-16T06:28:03;41.60;;;17.40;;
3379;SDS011;1703;51.964;7.642;2022-12-16T06:30:48;45.43;;;20.83;;
3379;SDS011;1703;51.964;7.642;2022-12-16T06:33:33;29.90;;;18.20;;
3379;SDS011;1703;51.964;7.642;2022-12-16T06:36:17;29.93;;;19.67;;
3379;SDS011;1703;51.964;7.642;2022-12-16T06:39:02;45.50;;;19.80;;
3379;SDS011;1703;51.964;7.642;2022-12-16T06:41:46;34.67;;;19.07;;
3379;SDS011;1703;51.964;7.642;2022-12-16T06:44:31;45.17;;;21.17;;
3379;SDS011;1703;51.964;7.642;2022-12-16T06:47:17;44.17;;;23.03;;
3379;SDS011;1703;51.964;7.642;2022-12-16T06:50:01;37.80;;;21.97;;
3379;SDS011;1703;51.964;7.642;2022-12-16T06:52:45;44.83;;;22.20;;
3379;SDS011;1703;51.964;7.642;2022-12-16T06:55:30;42.50;;;22.27;;
3379;SDS011;1703;51.964;7.642;2022-12-16T06:58:14;45.20;;;21.20;;
3379;SDS011;1703;51.964;7.642;2022-12-16T07:00:58;39.83;;;22.50;;
3379;SDS011;1703;51.964;7.642;2022-12-16T07:03:44;38.40;;;20.87;;
3379;SDS011;1703;51.964;7.642;2022-12-16T07:06:28;45.57;;;21.70;;
3379;SDS011;1703;51.964;7.642;2022-12-16T07:09:13;38.90;;;18.63;;
3379;SDS011;1703;51.964;7.642;2022-12-16T07:11:57;46.20;;;20.37;;
3379;SDS011;1703;51.964;7.642;2022-12-16T07:14:41;38.87;;;20.10;;
3379;SDS011;1703;51.964;7.642;2022-12-16T07:17:26;41.33;;;21.43;;
3379;SDS011;1703;51.964;7.642;2022-12-16T07:20:12;44.07;;;23.67;;
3379;SDS011;1703;51.964;7.642;2022-12-16T07:22:56;37.00;;;18.73;;
3379;SDS011;1703;51.964;7.642;2022-12-16T07:25:41;44.93;;;18.83;;
3379;SDS011;1703;51.964;7.642;2022-12-16T07:28:25;36.70;;;19.93;;
3379;SDS011;1703;51.964;7.642;2022-12-16T07:31:10;42.53;;;20.80;;
3379;SDS011;1703;51.964;7.642;2022-12-16T07:33:54;46.43;;;23.30;;
3379;SDS011;1703;51.964;7.642;2022-12-16T07:36:40;35.23;;;20.87;;
3379;SDS011;1703;51.964;7.642;2022-12-16T07:39:25;44.63;;;20.33;;
3379;SDS011;1703;51.964;7.642;2022-12-16T07:42:09;36.73;;;21.03;;
3379;SDS011;1703;51.964;7.642;2022-12-16T07:44:54;39.40;;;23.07;;
3379;SDS011;1703;51.964;7.642;2022-12-16T07:47:44;39.33;;;22.37;;
3379;SDS011;1703;51.964;7.642;2022-12-16T07:50:29;43.07;;;23.93;;
3379;SDS011;1703;51.964;7.642;2022-12-16T07:53:15;46.00;;;23.17;;
3379;SDS011;1703;51.964;7.642;2022-12-16T07:56:02;36.97;;;21.00;;
3379;SDS011;1703;51.964;7.642;2022-12-16T07:59:01;34.07;;;19.70;;
3379;SDS011;1703;51.964;7.642;2022-12-16T08:01:46;54.03;;;25.00;;
3379;SDS011;1703;51.964;7.642;2022-12-16T08:04:30;39.73;;;22.10;;
3379;SDS011;1703;51.964;7.642;2022-12-16T08:07:15;38.53;;;22.73;;
3379;SDS011;1703;51.964;7.642;2022-12-16T08:10:01;40.40;;;20.73;;
3379;SDS011;1703;51.964;7.642;2022-12-16T08:12:45;36.93;;;20.43;;
3379;SDS011;1703;51.964;7.642;2022-12-16T08:15:29;39.37;;;20.27;;
3379;SDS011;1703;51.964;7.642;2022-12-16T08:18:14;33.80;;;20.17;;
3379;SDS011;1703;51.964;7.642;2022-12-16T08:20:58;34.67;;;20.07;;
3379;SDS011;1703;51.964;7.642;2022-12-16T08:23:42;39.20;;;20.17;;
3379;SDS011;1703;51.964;7.642;2022-12-16T08:26:28;35.27;;;22.47;;
3379;SDS011;1703;51.964;7.642;2022-12-16T08:29:13;37.57;;;22.47;;
3379;SDS011;1703;51.964;7.642;2022-12-16T08:31:57;44.97;;;20.90;;
3379;SDS011;1703;51.964;7.642;2022-12-16T08:34:41;38.93;;;19.87;;
3379;SDS011;1703;51.964;7.642;2022-12-16T08:37:26;43.53;;;22.20;;
3379;SDS011;1703;51.964;7.642;2022-12-16T08:40:10;36.80;;;21.37;;
3379;SDS011;1703;51.964;7.642;2022-12-16T08:42:56;34.23;;;22.83;;
3379;SDS011;1703;51.964;7.642;2022-12-16T08:45:41;37.27;;;21.87;;
3379;SDS011;1703;51.964;7.642;2022-12-16T08:48:26;39.90;;;22.53;;
3379;SDS011;1703;51.964;7.642;2022-12-16T08:51:10;37.90;;;23.27;;
3379;SDS011;1703;51.964;7.642;2022-12-16T08:53:55;48.53;;;25.17;;
3379;SDS011;1703;51.964;7.642;2022-12-16T08:56:39;49.60;;;23.27;;
3379;SDS011;1703;51.964;7.642;2022-12-16T08:59:25;41.00;;;23.67;;
3379;SDS011;1703;51.964;7.642;2022-12-16T09:02:10;35.47;;;22.57;;
3379;SDS011;1703;51.964;7.642;2022-12-16T09:04:57;36.07;;;21.87;;
3379;SDS011;1703;51.964;7.642;2022-12-16T09:07:41;31.93;;;19.20;;
3379;SDS011;1703;51.964;7.642;2022-12-16T09:10:26;50.33;;;23.20;;
3379;SDS011;1703;51.964;7.642;2022-12-16T09:13:13;31.83;;;21.33;;
3379;SDS011;1703;51.964;7.642;2022-12-16T09:15:59;48.03;;;23.13;;
3379;SDS011;1703;51.964;7.642;2022-12-16T09:18:44;42.23;;;21.77;;
3379;SDS011;1703;51.964;7.642;2022-12-16T09:21:29;41.47;;;22.37;;
3379;SDS011;1703;51.964;7.642;2022-12-16T09:24:13;37.90;;;21.40;;
3379;SDS011;1703;51.964;7.642;2022-12-16T09:26:59;41.10;;;23.20;;
3379;SDS011;1703;51.964;7.642;2022-12-16T09:29:43;39.30;;;21.10;;
3379;SDS011;1703;51.964;7.642;2022-12-16T09:32:29;44.10;;;23.70;;
3379;SDS011;1703;51.964;7.642;2022-12-16T09:35:14;48.57;;;21.60;;
3379;SDS011;1703;51.964;7.642;2022-12-16T09:37:58;37.70;;;22.43;;
3379;SDS011;1703;51.964;7.642;2022-12-16T09:40:42;37.53;;;21.93;;
3379;SDS011;1703;51.964;7.642;2022-12-16T09:43:34;36.43;;;21.37;;
3379;SDS011;1703;51.964;7.642;2022-12-16T09:46:32;40.83;;;22.17;;
3379;SDS011;1703;51.964;7.642;2022-12-16T09:49:26;42.50;;;22.50;;
3379;SDS011;1703;51.964;7.642;2022-12-16T09:52:23;45.07;;;22.70;;
3379;SDS011;1703;51.964;7.642;2022-12-16T09:55:12;45.27;;;24.10;;
3379;SDS011;1703;51.964;7.642;2022-12-16T09:58:04;33.03;;;21.90;;
3379;SDS011;1703;51.964;7.642;2022-12-16T10:00:49;42.03;;;22.70;;
3379;SDS011;1703;51.964;7.642;2022-12-16T10:03:35;39.93;;;22.97;;
3379;SDS011;1703;51.964;7.642;2022-12-16T10:06:26;37.27;;;22.23;;
3379;SDS011;1703;51.964;7.642;2022-12-16T10:09:21;39.67;;;20.90;;
3379;SDS011;1703;51.964;7.642;2022-12-16T10:12:11;40.43;;;22.27;;
3379;SDS011;1703;51.964;7.642;2022-12-16T10:15:08;35.87;;;22.57;;
3379;SDS011;1703;51.964;7.642;2022-12-16T10:18:03;44.40;;;22.60;;
3379;SDS011;1703;51.964;7.642;2022-12-16T10:20:56;39.57;;;23.30;;
3379;SDS011;1703;51.964;7.642;2022-12-16T10:23:48;42.73;;;22.40;;
3379;SDS011;1703;51.964;7.642;2022-12-16T10:26:41;47.37;;;22.70;;
3379;SDS011;1703;51.964;7.642;2022-12-16T10:29:34;52.70;;;23.07;;
3379;SDS011;1703;51.964;7.642;2022-12-16T10:32:24;49.67;;;24.17;;
3379;SDS011;1703;51.964;7.642;2022-12-16T10:35:16;47.30;;;23.57;;
3379;SDS011;1703;51.964;7.642;2022-12-16T10:38:05;42.97;;;22.13;;
3379;SDS011;1703;51.964;7.642;2022-12-16T10:40:58;41.87;;;25.23;;
3379;SDS011;1703;51.964;7.642;2022-12-16T10:43:44;36.43;;;22.73;;
3379;SDS011;1703;51.964;7.642;2022-12-16T10:46:32;42.50;;;24.90;;
3379;SDS011;1703;51.964;7.642;2022-12-16T10:49:20;50.30;;;25.70;;
3379;SDS011;1703;51.964;7.642;2022-12-16T10:52:04;37.10;;;21.97;;
3379;SDS011;1703;51.964;7.642;2022-12-16T10:54:51;41.50;;;23.37;;
3379;SDS011;1703;51.964;7.642;2022-12-16T10:57:47;47.37;;;23.70;;
3379;SDS011;1703;51.964;7.642;2022-12-16T11:00:42;50.63;;;24.27;;
3379;SDS011;1703;51.964;7.642;2022-12-16T11:03:28;46.27;;;25.20;;
3379;SDS011;1703;51.964;7.642;2022-12-16T11:06:15;40.10;;;22.23;;
3379;SDS011;1703;51.964;7.642;2022-12-16T11:12:20;52.63;;;26.20;;
3379;SDS011;1703;51.964;7.642;2022-12-16T11:15:21;48.83;;;24.40;;
3379;SDS011;1703;51.964;7.642;2022-12-16T11:18:09;57.50;;;30.27;;
3379;SDS011;1703;51.964;7.642;2022-12-16T11:21:05;47.27;;;25.27;;
3379;SDS011;1703;51.964;7.642;2022-12-16T11:24:03;45.37;;;26.30;;
3379;SDS011;1703;51.964;7.642;2022-12-16T11:26:53;54.67;;;27.67;;
3379;SDS011;1703;51.964;7.642;2022-12-16T11:29:53;52.53;;;27.57;;
3379;SDS011;1703;51.964;7.642;2022-12-16T11:32:40;43.37;;;24.90;;
3379;SDS011;1703;51.964;7.642;2022-12-16T11:35:29;45.90;;;24.97;;
3379;SDS011;1703;51.964;7.642;2022-12-16T11:38:18;50.30;;;27.90;;
3379;SDS011;1703;51.964;7.642;2022-12-16T11:41:06;49.23;;;27.40;;
3379;SDS011;1703;51.964;7.642;2022-12-16T11:43:53;45.13;;;26.97;;
3379;SDS011;1703;51.964;7.642;2022-12-16T11:46:41;49.33;;;27.47;;
3379;SDS011;1703;51.964;7.642;2022-12-16T11:49:28;46.73;;;27.70;;
3379;SDS011;1703;51.964;7.642;2022-12-16T11:52:15;45.00;;;26.07;;
3379;SDS011;1703;51.964;7.642;2022-12-16T11:55:03;52.93;;;30.57;;
3379;SDS011;1703;51.964;7.642;2022-12-16T11:57:56;44.07;;;27.03;;
3379;SDS011;1703;51.964;7.642;2022-12-16T12:00:56;46.20;;;26.27;;
3379;SDS011;1703;51.964;7.642;2022-12-16T12:03:45;59.57;;;31.23;;
3379;SDS011;1703;51.964;7.642;2022-12-16T12:06:38;54.97;;;29.90;;
3379;SDS011;1703;51.964;7.642;2022-12-16T12:09:35;49.93;;;26.90;;
3379;SDS011;1703;51.964;7.642;2022-12-16T12:12:27;50.37;;;28.07;;
3379;SDS011;1703;51.964;7.642;2022-12-16T12:15:17;51.53;;;29.00;;
3379;SDS011;1703;51.964;7.642;2022-12-16T12:18:10;42.93;;;24.70;;
3379;SDS011;1703;51.964;7.642;2022-12-16T12:21:04;48.33;;;24.83;;
3379;SDS011;1703;51.964;7.642;2022-12-16T12:23:56;53.77;;;25.03;;
3379;SDS011;1703;51.964;7.642;2022-12-16T12:26:56;47.60;;;26.10;;
3379;SDS011;1703;51.964;7.642;2022-12-16T12:29:50;44.57;;;25.50;;
3379;SDS011;1703;51.964;7.642;2022-12-16T12:32:41;39.20;;;22.60;;
3379;SDS011;1703;51.964;7.642;2022-12-16T12:35:39;43.60;;;23.83;;
3379;SDS011;1703;51.964;7.642;2022-12-16T12:38:34;50.07;;;25.90;;
3379;SDS011;1703;51.964;7.642;2022-12-16T12:41:31;45.30;;;24.80;;
3379;SDS011;1703;51.964;7.642;2022-12-16T12:44:24;40.60;;;22.77;;
3379;SDS011;1703;51.964;7.642;2022-12-16T12:47:18;43.40;;;22.60;;
3379;SDS011;1703;51.964;7.642;2022-12-16T12:50:04;41.23;;;21.63;;
3379;SDS011;1703;51.964;7.642;2022-12-16T12:52:56;44.20;;;23.73;;
3379;SDS011;1703;51.964;7.642;2022-12-16T12:55:48;43.83;;;22.90;;
3379;SDS011;1703;51.964;7.642;2022-12-16T12:58:41;41.40;;;21.97;;
3379;SDS011;1703;51.964;7.642;2022-12-16T13:01:28;45.70;;;24.60;;
3379;SDS011;1703;51.964;7.642;2022-12-16T13:04:15;44.10;;;24.27;;
3379;SDS011;1703;51.964;7.642;2022-12-16T13:07:01;42.53;;;25.30;;
3379;SDS011;1703;51.964;7.642;2022-12-16T13:09:48;47.97;;;24.40;;
3379;SDS011;1703;51.964;7.642;2022-12-16T13:19:57;41.20;;;22.97;;
3379;SDS011;1703;51.964;7.642;2022-12-16T13:22:42;40.80;;;23.07;;
3379;SDS011;1703;51.964;7.642;2022-12-16T13:25:33;40.37;;;23.30;;
3379;SDS011;1703;51.964;7.642;2022-12-16T13:28:21;42.83;;;23.17;;
3379;SDS011;1703;51.964;7.642;2022-12-16T13:31:08;39.00;;;23.30;;
3379;SDS011;1703;51.964;7.642;2022-12-16T13:33:52;34.53;;;21.77;;
3379;SDS011;1703;51.964;7.642;2022-12-16T13:36:37;42.93;;;22.03;;
3379;SDS011;1703;51.964;7.642;2022-12-16T13:39:24;38.97;;;22.37;;
3379;SDS011;1703;51.964;7.642;2022-12-16T13:45:35;52.87;;;21.47;;
3379;SDS011;1703;51.964;7.642;2022-12-16T13:48:25;41.73;;;21.63;;
3379;SDS011;1703;51.964;7.642;2022-12-16T13:54:44;40.93;;;22.93;;
3379;SDS011;1703;51.964;7.642;2022-12-16T13:57:34;41.53;;;22.70;;
3379;SDS011;1703;51.964;7.642;2022-12-16T14:00:24;46.53;;;23.07;;
3379;SDS011;1703;51.964;7.642;2022-12-16T14:03:10;51.13;;;23.67;;
3379;SDS011;1703;51.964;7.642;2022-12-16T14:06:00;42.80;;;24.00;;
3379;SDS011;1703;51.964;7.642;2022-12-16T14:08:47;45.63;;;23.03;;
3379;SDS011;1703;51.964;7.642;2022-12-16T14:11:35;38.60;;;20.60;;
3379;SDS011;1703;51.964;7.642;2022-12-16T14:14:31;40.27;;;20.00;;
3379;SDS011;1703;51.964;7.642;2022-12-16T14:17:24;40.83;;;22.70;;
3379;SDS011;1703;51.964;7.642;2022-12-16T14:20:14;41.70;;;22.47;;
3379;SDS011;1703;51.964;7.642;2022-12-16T14:23:05;46.80;;;23.93;;
3379;SDS011;1703;51.964;7.642;2022-12-16T14:26:02;57.70;;;23.57;;
3379;SDS011;1703;51.964;7.642;2022-12-16T14:28:47;48.37;;;25.17;;
3379;SDS011;1703;51.964;7.642;2022-12-16T14:31:33;42.53;;;23.37;;
3379;SDS011;1703;51.964;7.642;2022-12-16T14:34:21;44.90;;;22.50;;
3379;SDS011;1703;51.964;7.642;2022-12-16T14:37:11;36.97;;;23.27;;
3379;SDS011;1703;51.964;7.642;2022-12-16T14:39:56;40.60;;;22.40;;
3379;SDS011;1703;51.964;7.642;2022-12-16T14:42:41;46.80;;;23.30;;
3379;SDS011;1703;51.964;7.642;2022-12-16T14:45:27;37.37;;;23.53;;
3379;SDS011;1703;51.964;7.642;2022-12-16T14:48:14;45.83;;;23.27;;
3379;SDS011;1703;51.964;7.642;2022-12-16T14:51:15;49.20;;;24.37;;
3379;SDS011;1703;51.964;7.642;2022-12-16T14:54:15;38.30;;;21.23;;
3379;SDS011;1703;51.964;7.642;2022-12-16T14:57:18;46.77;;;24.60;;
3379;SDS011;1703;51.964;7.642;2022-12-16T15:00:10;48.03;;;26.60;;
3379;SDS011;1703;51.964;7.642;2022-12-16T15:02:58;42.13;;;24.40;;
3379;SDS011;1703;51.964;7.642;2022-12-16T15:05:48;42.13;;;23.07;;
3379;SDS011;1703;51.964;7.642;2022-12-16T15:08:35;44.63;;;24.50;;
3379;SDS011;1703;51.964;7.642;2022-12-16T15:11:25;39.67;;;22.80;;
3379;SDS011;1703;51.964;7.642;2022-12-16T15:14:10;49.57;;;25.07;;
3379;SDS011;1703;51.964;7.642;2022-12-16T15:16:59;50.33;;;23.90;;
3379;SDS011;1703;51.964;7.642;2022-12-16T15:19:44;42.37;;;24.87;;
3379;SDS011;1703;51.964;7.642;2022-12-16T15:22:31;49.20;;;22.93;;
3379;SDS011;1703;51.964;7.642;2022-12-16T15:25:18;43.77;;;24.13;;
3379;SDS011;1703;51.964;7.642;2022-12-16T15:28:04;51.80;;;24.60;;
3379;SDS011;1703;51.964;7.642;2022-12-16T15:30:48;44.37;;;25.60;;
3379;SDS011;1703;51.964;7.642;2022-12-16T15:33:33;46.17;;;24.63;;
3379;SDS011;1703;51.964;7.642;2022-12-16T15:36:34;43.33;;;24.90;;
3379;SDS011;1703;51.964;7.642;2022-12-16T15:39:20;45.70;;;25.10;;
3379;SDS011;1703;51.964;7.642;2022-12-16T15:42:18;44.63;;;25.40;;
3379;SDS011;1703;51.964;7.642;2022-12-16T15:45:04;41.40;;;24.93;;
3379;SDS011;1703;51.964;7.642;2022-12-16T15:47:58;46.43;;;26.40;;
3379;SDS011;1703;51.964;7.642;2022-12-16T15:50:50;41.93;;;24.30;;
3379;SDS011;1703;51.964;7.642;2022-12-16T15:53:36;47.70;;;25.77;;
3379;SDS011;1703;51.964;7.642;2022-12-16T15:56:22;40.37;;;25.77;;
3379;SDS011;1703;51.964;7.642;2022-12-16T15:59:13;50.97;;;28.30;;
3379;SDS011;1703;51.964;7.642;2022-12-16T16:02:06;47.60;;;25.57;;
3379;SDS011;1703;51.964;7.642;2022-12-16T16:04:57;43.03;;;27.37;;
3379;SDS011;1703;51.964;7.642;2022-12-16T16:07:41;43.40;;;27.53;;
3379;SDS011;1703;51.964;7.642;2022-12-16T16:10:26;51.43;;;28.20;;
3379;SDS011;1703;51.964;7.642;2022-12-16T16:13:10;46.03;;;28.07;;
3379;SDS011;1703;51.964;7.642;2022-12-16T16:15:56;54.27;;;29.83;;
3379;SDS011;1703;51.964;7.642;2022-12-16T16:18:41;70.40;;;29.00;;
3379;SDS011;1703;51.964;7.642;2022-12-16T16:21:26;45.73;;;26.60;;
3379;SDS011;1703;51.964;7.642;2022-12-16T16:24:11;51.13;;;29.13;;
3379;SDS011;1703;51.964;7.642;2022-12-16T16:26:56;52.40;;;30.50;;
3379;SDS011;1703;51.964;7.642;2022-12-16T16:29:43;44.83;;;26.03;;
3379;SDS011;1703;51.964;7.642;2022-12-16T16:32:29;54.87;;;32.17;;
3379;SDS011;1703;51.964;7.642;2022-12-16T16:35:13;52.83;;;29.80;;
3379;SDS011;1703;51.964;7.642;2022-12-16T16:37:57;57.47;;;31.20;;
3379;SDS011;1703;51.964;7.642;2022-12-16T16:40:42;55.17;;;28.17;;